Time;durP1;ratioP1;P1;durP2;ratioP2;P2;SDS_P1;SDS_P2;PMS_P1;PMS_P2;Temp;Humidity;BMP_temperature;BMP_pressure;BME280_temperature;BME280_humidity;BME280_pressure;Samples;Min_cycle;Max_cycle;Signal;HPM_P1;HPM_P2
2022/05/25 00:00:26;;;;;;;;;;;;;;;22.76;36.21;100678.66;2075749;28;764;-60
2022/05/25 00:01:26;;;;;;;;;;;;;;;22.76;36.21;100673.25;2075651;28;1973;-60
2022/05/25 00:02:27;;;;;;;;;;;;;;;22.76;36.38;100677.78;2075693;28;1902;-60
2022/05/25 00:03:28;;;;;;;;;;;;;;;22.76;36.41;100675.09;2075690;28;799;-60
2022/05/25 00:04:28;;;;;;;;;;;;;;;22.74;36.47;100677.00;2075719;28;915;-60
2022/05/25 00:05:30;;;;;;;;;;;;;;;22.73;36.44;100678.78;2075686;28;1033;-60
2022/05/25 00:06:31;;;;;;;;;;;;;;;22.73;36.48;100677.94;2076522;28;799;-60
2022/05/25 00:07:31;;;;;;;;;;;;;;;22.72;37.22;100682.44;2075744;28;989;-60
2022/05/25 00:08:32;;;;;;;;;;;;;;;22.73;36.47;100686.03;2075600;28;760;-60
2022/05/25 00:09:32;;;;;;;;;;;;;;;22.71;36.47;100675.28;2083164;28;1211;-60
2022/05/25 00:10:32;;;;;;;;;;;;;;;22.71;36.81;100679.81;2075232;28;745;-60
2022/05/25 00:11:32;;;;;;;;;;;;;;;22.70;36.62;100678.94;2075051;28;847;-60
2022/05/25 00:12:32;;;;;;;;;;;;;;;22.69;36.76;100679.00;2075651;28;986;-60
2022/05/25 00:13:33;;;;;;;;;;;;;;;22.68;37.10;100678.13;2074889;28;1310;-61
2022/05/25 00:14:33;;;;;;;;;;;;;;;22.67;36.98;100676.38;2066852;28;1150;-60
2022/05/25 00:15:34;;;;;;;;;;;;;;;22.68;37.10;100674.56;2075032;28;919;-60
2022/05/25 00:16:34;;;;;;;;;;;;;;;22.67;36.79;100670.97;2075643;28;850;-60
2022/05/25 00:17:35;;;;;;;;;;;;;;;22.65;37.17;100668.34;2074895;28;1326;-60
2022/05/25 00:18:35;;;;;;;;;;;;;;;22.65;36.75;100667.50;2074964;28;981;-60
2022/05/25 00:20:54;;;;;;;;;;;;;;;22.64;36.86;100663.91;2075725;28;630;-60
2022/05/25 00:21:54;;;;;;;;;;;;;;;22.64;37.09;100669.28;2075622;28;768;-60
2022/05/25 00:22:55;;;;;;;;;;;;;;;22.63;37.07;100664.84;2075194;28;1915;-60
2022/05/25 00:23:56;;;;;;;;;;;;;;;22.63;37.59;100662.13;2075555;28;930;-60
2022/05/25 00:24:57;;;;;;;;;;;;;;;22.62;37.20;100659.53;2075624;28;804;-60
2022/05/25 00:25:57;;;;;;;;;;;;;;;22.60;37.31;100656.88;2075520;28;862;-60
2022/05/25 00:26:57;;;;;;;;;;;;;;;22.60;37.18;100659.56;2075504;28;1029;-60
2022/05/25 00:27:57;;;;;;;;;;;;;;;22.60;37.83;100656.88;2075516;28;807;-60
2022/05/25 00:28:57;;;;;;;;;;;;;;;22.59;37.94;100657.81;2075505;28;994;-60
2022/05/25 00:29:58;;;;;;;;;;;;;;;22.59;37.96;100657.81;2075521;28;993;-60
2022/05/25 00:30:58;;;;;;;;;;;;;;;22.59;37.18;100655.13;2075486;28;867;-60
2022/05/25 00:31:59;;;;;;;;;;;;;;;22.59;37.36;100655.13;2075488;28;753;-60
2022/05/25 00:33:00;;;;;;;;;;;;;;;22.59;37.78;100651.56;2075596;28;757;-60
2022/05/25 00:34:00;;;;;;;;;;;;;;;22.58;37.36;100649.81;2075458;28;819;-60
2022/05/25 00:35:01;;;;;;;;;;;;;;;22.57;38.00;100648.91;2075490;28;854;-60
2022/05/25 00:36:01;;;;;;;;;;;;;;;22.55;38.10;100639.16;2075430;28;804;-60
2022/05/25 00:37:01;;;;;;;;;;;;;;;22.55;38.10;100649.94;2074716;28;1208;-60
2022/05/25 00:38:02;;;;;;;;;;;;;;;22.55;38.06;100645.41;2074807;28;788;-60
2022/05/25 00:39:04;;;;;;;;;;;;;;;22.55;37.48;100650.81;2082897;28;1009;-60
2022/05/25 00:40:04;;;;;;;;;;;;;;;22.55;38.15;100653.50;2075478;28;867;-60
2022/05/25 00:41:05;;;;;;;;;;;;;;;22.55;38.16;100650.81;2075434;28;1091;-60
2022/05/25 00:42:05;;;;;;;;;;;;;;;22.52;37.96;100650.94;2075437;28;989;-60
2022/05/25 00:43:06;;;;;;;;;;;;;;;22.54;38.25;100659.84;2075452;28;1959;-60
2022/05/25 00:44:06;;;;;;;;;;;;;;;22.54;37.59;100659.00;2075622;28;686;-60
2022/05/25 00:45:07;;;;;;;;;;;;;;;22.52;37.75;100653.63;2075431;28;791;-60
2022/05/25 00:46:10;;;;;;;;;;;;;;;22.52;37.66;100648.25;2082837;28;2399;-60
2022/05/25 00:47:10;;;;;;;;;;;;;;;22.52;37.61;100650.94;2082690;28;1049;-59
2022/05/25 00:48:15;;;;;;;;;;;;;;;22.49;37.99;100646.56;2075515;28;811;-60
2022/05/25 00:49:20;;;;;;;;;;;;;;;22.50;37.75;100648.31;2075420;28;862;-60
2022/05/25 00:50:22;;;;;;;;;;;;;;;22.50;38.46;100652.84;2075369;28;1028;-60
2022/05/25 00:51:29;;;;;;;;;;;;;;;22.48;38.05;100647.53;2075312;28;982;-60
2022/05/25 00:52:29;;;;;;;;;;;;;;;22.49;37.75;100641.19;2075594;28;764;-60
2022/05/25 00:53:29;;;;;;;;;;;;;;;22.48;37.91;100643.94;2074629;28;1017;-60
2022/05/25 00:54:34;;;;;;;;;;;;;;;22.48;38.69;100636.72;2074753;28;836;-60
2022/05/25 00:55:34;;;;;;;;;;;;;;;22.48;38.51;100643.94;2075294;28;863;-60
2022/05/25 00:56:36;;;;;;;;;;;;;;;22.48;38.62;100644.81;2075306;28;970;-60
2022/05/25 00:57:41;;;;;;;;;;;;;;;22.48;38.59;100639.41;2075487;28;894;-59
2022/05/25 00:58:45;;;;;;;;;;;;;;;22.49;37.84;100640.28;2075750;28;1060;-60
2022/05/25 00:59:48;;;;;;;;;;;;;;;22.47;37.95;100637.66;2075293;28;1040;-60
2022/05/25 01:00:48;;;;;;;;;;;;;;;22.46;38.51;100644.00;2075306;28;783;-60
2022/05/25 01:01:48;;;;;;;;;;;;;;;22.46;38.12;100640.41;2075253;28;879;-60
2022/05/25 01:02:51;;;;;;;;;;;;;;;22.46;38.49;100644.00;2075136;28;1949;-60
2022/05/25 01:03:51;;;;;;;;;;;;;;;22.46;38.62;100645.81;2075236;28;815;-60
2022/05/25 01:04:51;;;;;;;;;;;;;;;22.46;38.12;100638.59;2075227;28;993;-60
2022/05/25 01:06:05;;;;;;;;;;;;;;;22.45;38.28;100639.56;2076535;28;835;-60
2022/05/25 01:07:08;;;;;;;;;;;;;;;22.46;38.55;100640.41;2075303;28;792;-60
2022/05/25 01:08:16;;;;;;;;;;;;;;;22.45;38.16;100634.16;2075163;28;1036;-60
2022/05/25 01:09:35;;;;;;;;;;;;;;;22.44;38.46;100631.50;2075325;28;922;-60
2022/05/25 01:10:55;;;;;;;;;;;;;;;22.43;38.54;100635.13;2075219;28;764;-60
2022/05/25 01:12:10;;;;;;;;;;;;;;;22.43;38.51;100633.31;2050004;29;943;-60
2022/05/25 01:13:34;;;;;;;;;;;;;;;22.44;38.26;100634.22;2050070;29;864;-60
2022/05/25 01:14:56;;;;;;;;;;;;;;;22.44;38.36;100640.50;2050000;29;1167;-60
2022/05/25 01:16:07;;;;;;;;;;;;;;;22.44;38.53;100639.59;2050001;29;1344;-60
2022/05/25 01:17:25;;;;;;;;;;;;;;;22.43;38.81;100632.41;2049931;29;1073;-60
2022/05/25 01:18:28;;;;;;;;;;;;;;;22.43;38.36;100640.53;2051181;29;796;-60
2022/05/25 01:19:39;;;;;;;;;;;;;;;22.42;38.45;100639.66;2050017;29;1022;-60
2022/05/25 01:20:43;;;;;;;;;;;;;;;22.42;38.47;100638.75;2049973;29;852;-60
2022/05/25 01:21:51;;;;;;;;;;;;;;;22.42;38.66;100634.25;2050023;29;906;-60
2022/05/25 01:23:09;;;;;;;;;;;;;;;22.42;38.89;100641.47;2049854;29;1919;-60
2022/05/25 01:24:19;;;;;;;;;;;;;;;22.42;38.84;100636.06;2050000;29;1078;-60
2022/05/25 01:25:39;;;;;;;;;;;;;;;22.41;38.76;100632.50;2049966;29;868;-60
2022/05/25 01:26:45;;;;;;;;;;;;;;;22.40;38.55;100630.75;2050004;29;801;-60
2022/05/25 01:27:46;;;;;;;;;;;;;;;22.41;38.61;100629.81;2049904;29;1408;-60
2022/05/25 01:28:46;;;;;;;;;;;;;;;22.41;38.72;100629.81;2050575;29;999;-60
2022/05/25 01:30:05;;;;;;;;;;;;;;;22.39;38.69;100629.00;2049954;29;1030;-60
2022/05/25 01:31:08;;;;;;;;;;;;;;;22.40;38.81;100633.44;2049762;29;840;-60
2022/05/25 01:32:23;;;;;;;;;;;;;;;22.40;39.26;100621.75;2049958;29;1061;-60
2022/05/25 01:33:30;;;;;;;;;;;;;;;22.39;38.87;100623.59;2049897;29;971;-60
2022/05/25 01:34:48;;;;;;;;;;;;;;;22.39;38.81;100623.59;2049168;28;970;-60
2022/05/25 01:35:56;;;;;;;;;;;;;;;22.39;39.00;100620.91;2049879;29;1229;-60
2022/05/25 01:37:05;;;;;;;;;;;;;;;22.39;39.22;100622.69;2049937;29;1086;-60
2022/05/25 01:38:24;;;;;;;;;;;;;;;22.39;39.66;100623.59;2049869;29;777;-59
2022/05/25 01:39:29;;;;;;;;;;;;;;;22.39;39.35;100623.59;2049875;29;789;-60
2022/05/25 01:40:41;;;;;;;;;;;;;;;22.39;38.95;100622.69;2049860;29;951;-60
2022/05/25 01:41:55;;;;;;;;;;;;;;;22.39;39.03;100622.69;2049805;29;1607;-60
2022/05/25 01:42:59;;;;;;;;;;;;;;;22.39;39.19;100622.69;2047975;29;1902;-60
2022/05/25 01:44:04;;;;;;;;;;;;;;;22.38;39.03;100619.16;2042225;29;986;-60
2022/05/25 01:45:07;;;;;;;;;;;;;;;22.38;39.67;100615.56;2050334;29;808;-60
2022/05/25 01:46:16;;;;;;;;;;;;;;;22.38;39.95;100621.84;2049727;29;1170;-60
2022/05/25 01:47:16;;;;;;;;;;;;;;;22.37;39.21;100620.09;2049814;29;975;-60
2022/05/25 01:48:19;;;;;;;;;;;;;;;22.36;39.48;100615.63;2049806;29;765;-60
2022/05/25 01:49:21;;;;;;;;;;;;;;;22.36;40.05;100616.53;2050911;28;1180;-60
2022/05/25 01:50:24;;;;;;;;;;;;;;;22.36;39.37;100611.13;2082416;28;1001;-60
2022/05/25 01:51:27;;;;;;;;;;;;;;;22.38;39.42;100618.25;2074912;28;732;-60
2022/05/25 01:52:31;;;;;;;;;;;;;;;22.38;39.34;100620.94;2082364;28;1227;-60
2022/05/25 01:53:34;;;;;;;;;;;;;;;22.39;39.66;100611.91;2082127;28;993;-60
2022/05/25 01:54:36;;;;;;;;;;;;;;;22.38;39.36;100619.16;2074897;28;1044;-60
2022/05/25 01:55:39;;;;;;;;;;;;;;;22.39;39.63;100611.91;2074911;28;930;-60
2022/05/25 01:56:40;;;;;;;;;;;;;;;22.38;39.46;100608.34;2075240;28;859;-60
2022/05/25 01:57:44;;;;;;;;;;;;;;;22.38;39.33;100615.56;2074925;28;792;-60
2022/05/25 01:58:46;;;;;;;;;;;;;;;22.39;39.40;100609.22;2074885;28;819;-60
2022/05/25 01:59:46;;;;;;;;;;;;;;;22.38;39.64;100611.03;2074909;28;1057;-60
2022/05/25 02:00:48;;;;;;;;;;;;;;;22.38;39.78;100618.25;2074843;28;1002;-60
2022/05/25 02:01:48;;;;;;;;;;;;;;;22.36;40.06;100608.44;2074799;28;918;-59
2022/05/25 02:04:23;;;;;;;;;;;;;;;22.37;39.84;100617.38;2074903;28;511;-60
2022/05/25 02:05:23;;;;;;;;;;;;;;;22.36;39.56;100616.53;2074999;28;808;-60
2022/05/25 02:06:26;;;;;;;;;;;;;;;22.37;39.75;100617.38;2074814;28;974;-60
2022/05/25 02:07:35;;;;;;;;;;;;;;;22.37;39.75;100622.78;2074793;28;1013;-59
2022/05/25 02:08:36;;;;;;;;;;;;;;;22.36;40.35;100619.22;2074847;28;902;-60
2022/05/25 02:09:45;;;;;;;;;;;;;;;22.36;40.42;100619.22;2075552;28;812;-59
2022/05/25 02:10:46;;;;;;;;;;;;;;;22.36;39.90;100626.44;2074943;28;949;-60
2022/05/25 02:11:54;;;;;;;;;;;;;;;22.35;40.00;100625.56;2074800;28;791;-60
2022/05/25 02:13:12;;;;;;;;;;;;;;;22.35;40.18;100622.88;2074823;28;772;-60
2022/05/25 02:14:23;;;;;;;;;;;;;;;22.34;39.87;100623.81;2074785;28;934;-60
2022/05/25 02:15:31;;;;;;;;;;;;;;;22.35;40.12;100616.59;2074795;28;1005;-59
2022/05/25 02:16:31;;;;;;;;;;;;;;;22.34;40.67;100618.41;2074800;28;993;-60
2022/05/25 02:17:41;;;;;;;;;;;;;;;22.34;40.25;100615.72;2074671;28;1204;-60
2022/05/25 02:18:49;;;;;;;;;;;;;;;22.35;40.16;100621.97;2074765;28;847;-60
2022/05/25 02:19:58;;;;;;;;;;;;;;;22.34;39.96;100614.81;2074828;28;1009;-59
2022/05/25 02:21:01;;;;;;;;;;;;;;;22.33;40.27;100619.38;2082277;28;1168;-60
2022/05/25 02:22:09;;;;;;;;;;;;;;;22.34;39.99;100620.22;2082111;28;847;-60
2022/05/25 02:23:27;;;;;;;;;;;;;;;22.33;40.24;100622.06;2073995;28;1910;-61
2022/05/25 02:24:38;;;;;;;;;;;;;;;22.34;40.79;100623.81;2074312;28;795;-60
2022/05/25 02:25:58;;;;;;;;;;;;;;;22.32;40.06;100614.91;2074831;28;1075;-60
2022/05/25 02:27:01;;;;;;;;;;;;;;;22.32;40.10;100620.31;2074764;28;997;-60
2022/05/25 02:28:10;;;;;;;;;;;;;;;22.32;40.39;100617.63;2074718;28;986;-60
2022/05/25 02:29:26;;;;;;;;;;;;;;;22.33;40.51;100622.06;2074805;28;796;-60
2022/05/25 02:30:29;;;;;;;;;;;;;;;22.32;40.98;100623.00;2074833;28;874;-59
2022/05/25 02:31:32;;;;;;;;;;;;;;;22.32;40.99;100627.50;2074653;28;965;-60
2022/05/25 02:32:38;;;;;;;;;;;;;;;22.31;40.63;100626.66;2074701;28;993;-60
2022/05/25 02:33:40;;;;;;;;;;;;;;;22.31;40.57;100626.66;2074757;28;1009;-60
2022/05/25 02:34:42;;;;;;;;;;;;;;;22.31;40.38;100631.16;2075803;28;835;-60
2022/05/25 02:35:44;;;;;;;;;;;;;;;22.32;40.44;100630.22;2075173;28;788;-60
2022/05/25 02:36:45;;;;;;;;;;;;;;;22.31;40.51;100640.13;2074809;28;961;-60
2022/05/25 02:37:46;;;;;;;;;;;;;;;22.32;41.08;100635.59;2074634;28;1260;-60
2022/05/25 02:38:46;;;;;;;;;;;;;;;22.32;40.86;100633.81;2074639;28;1045;-60
2022/05/25 02:39:46;;;;;;;;;;;;;;;22.32;40.53;100639.19;2074667;28;772;-60
2022/05/25 02:40:46;;;;;;;;;;;;;;;22.34;40.74;100636.41;2074654;28;906;-60
2022/05/25 02:41:48;;;;;;;;;;;;;;;22.32;40.71;100632.91;2074684;28;835;-60
2022/05/25 02:42:48;;;;;;;;;;;;;;;22.34;40.80;100641.81;2074639;28;1898;-60
2022/05/25 02:43:48;;;;;;;;;;;;;;;22.33;41.29;100638.25;2074665;28;857;-59
2022/05/25 02:44:48;;;;;;;;;;;;;;;22.32;40.92;100630.22;2074610;28;970;-60
2022/05/25 02:45:49;;;;;;;;;;;;;;;22.32;40.86;100633.81;2074867;28;1264;-60
2022/05/25 02:46:49;;;;;;;;;;;;;;;22.32;40.70;100632.91;2075716;28;930;-59
2022/05/25 02:47:50;;;;;;;;;;;;;;;22.31;40.97;100626.66;2076470;28;981;-60
2022/05/25 02:48:50;;;;;;;;;;;;;;;22.32;40.79;100630.22;2076277;28;807;-60
2022/05/25 02:49:50;;;;;;;;;;;;;;;22.31;40.93;100631.16;2076282;28;1025;-60
2022/05/25 02:50:50;;;;;;;;;;;;;;;22.31;40.93;100633.84;2076241;28;985;-60
2022/05/25 02:51:50;;;;;;;;;;;;;;;22.30;40.81;100630.28;2076266;28;1026;-60
2022/05/25 02:52:51;;;;;;;;;;;;;;;22.31;41.54;100631.16;2083694;28;867;-60
2022/05/25 02:53:51;;;;;;;;;;;;;;;22.31;40.73;100637.44;2083841;28;1068;-60
2022/05/25 02:54:51;;;;;;;;;;;;;;;22.31;40.90;100631.16;2076428;28;997;-60
2022/05/25 02:55:51;;;;;;;;;;;;;;;22.32;41.38;100635.59;2076272;28;772;-59
2022/05/25 02:56:51;;;;;;;;;;;;;;;22.30;40.94;100638.38;2076213;28;855;-60
2022/05/25 02:57:51;;;;;;;;;;;;;;;22.29;40.90;100635.75;2076357;28;748;-59
2022/05/25 02:58:52;;;;;;;;;;;;;;;22.30;40.94;100634.78;2076184;28;902;-60
2022/05/25 02:59:52;;;;;;;;;;;;;;;22.29;41.82;100636.63;2076487;28;837;-59
2022/05/25 03:00:52;;;;;;;;;;;;;;;22.28;41.20;100580.03;2083911;28;777;-60
2022/05/25 03:01:52;;;;;;;;;;;;;;;22.29;41.26;100579.06;2083781;28;839;-60
2022/05/25 03:02:52;;;;;;;;;;;;;;;22.28;41.80;100583.59;2076082;28;1961;-60
2022/05/25 03:03:53;;;;;;;;;;;;;;;22.30;41.65;100588.91;2076203;28;760;-60
2022/05/25 03:04:53;;;;;;;;;;;;;;;22.30;40.92;100591.63;2076167;28;985;-60
2022/05/25 03:05:53;;;;;;;;;;;;;;;22.30;41.38;100581.72;2076138;28;1002;-60
2022/05/25 03:06:53;;;;;;;;;;;;;;;22.30;41.58;100584.41;2076156;28;978;-60
2022/05/25 03:07:53;;;;;;;;;;;;;;;22.31;41.15;100642.84;2075453;28;1241;-60
2022/05/25 03:08:53;;;;;;;;;;;;;;;22.32;40.75;100671.56;2075626;28;784;-60
2022/05/25 03:09:54;;;;;;;;;;;;;;;22.33;40.96;100656.25;2076065;28;1072;-59
2022/05/25 03:10:54;;;;;;;;;;;;;;;22.32;40.92;100643.69;2076097;28;793;-60
2022/05/25 03:11:54;;;;;;;;;;;;;;;22.32;41.26;100632.91;2076126;28;871;-59
2022/05/25 03:12:54;;;;;;;;;;;;;;;22.31;41.39;100632.03;2076253;28;827;-60
2022/05/25 03:13:55;;;;;;;;;;;;;;;22.32;41.70;100636.50;2076112;28;899;-60
2022/05/25 03:14:55;;;;;;;;;;;;;;;22.32;40.94;100635.59;2076039;28;788;-60
2022/05/25 03:15:58;;;;;;;;;;;;;;;22.32;41.87;100628.41;2076082;28;1076;-60
2022/05/25 03:17:04;;;;;;;;;;;;;;;22.32;41.71;100633.81;2075914;28;1282;-60
2022/05/25 03:18:05;;;;;;;;;;;;;;;22.31;41.88;100634.75;2076093;28;843;-60
2022/05/25 03:19:06;;;;;;;;;;;;;;;22.31;41.33;100639.25;2076071;28;843;-59
2022/05/25 03:20:07;;;;;;;;;;;;;;;22.30;41.28;100633.00;2083562;28;898;-60
2022/05/25 03:21:08;;;;;;;;;;;;;;;22.30;41.49;100635.69;2083534;28;1287;-59
2022/05/25 03:22:08;;;;;;;;;;;;;;;22.30;41.60;100627.59;2075474;28;827;-60
2022/05/25 03:23:08;;;;;;;;;;;;;;;22.29;42.03;100633.03;2075931;28;1910;-60
2022/05/25 03:24:09;;;;;;;;;;;;;;;22.31;41.23;100636.53;2075987;28;1002;-60
2022/05/25 03:25:13;;;;;;;;;;;;;;;22.29;41.31;100639.31;2076164;28;780;-60
2022/05/25 03:26:13;;;;;;;;;;;;;;;22.29;41.48;100633.94;2076025;28;990;-60
2022/05/25 03:27:13;;;;;;;;;;;;;;;22.30;41.34;100634.78;2075964;28;989;-60
2022/05/25 03:28:14;;;;;;;;;;;;;;;22.29;41.40;100627.63;2076412;28;737;-60
2022/05/25 03:29:17;;;;;;;;;;;;;;;22.28;42.13;100632.19;2075912;28;1239;-60
2022/05/25 03:30:19;;;;;;;;;;;;;;;22.28;41.91;100632.19;2075982;28;816;-60
2022/05/25 03:31:19;;;;;;;;;;;;;;;22.28;41.49;100637.56;2076068;28;796;-59
2022/05/25 03:32:19;;;;;;;;;;;;;;;22.28;41.71;100625.88;2075915;28;780;-59
2022/05/25 03:33:20;;;;;;;;;;;;;;;22.27;41.61;100627.72;2075959;28;970;-60
2022/05/25 03:34:21;;;;;;;;;;;;;;;22.28;41.48;100632.19;2075925;28;1025;-60
2022/05/25 03:35:21;;;;;;;;;;;;;;;22.28;42.14;100625.88;2075919;28;871;-60
2022/05/25 03:36:22;;;;;;;;;;;;;;;22.28;41.69;100625.88;2075229;28;1013;-59
2022/05/25 03:37:23;;;;;;;;;;;;;;;22.28;41.46;100625.88;2075305;28;800;-60
2022/05/25 03:38:23;;;;;;;;;;;;;;;22.28;41.73;100628.59;2075875;28;824;-60
2022/05/25 03:39:24;;;;;;;;;;;;;;;22.28;41.66;100626.78;2075223;28;797;-60
2022/05/25 03:40:24;;;;;;;;;;;;;;;22.28;41.61;100624.09;2075311;28;1001;-60
2022/05/25 03:41:25;;;;;;;;;;;;;;;22.29;41.91;100622.25;2075881;28;978;-60
2022/05/25 03:42:25;;;;;;;;;;;;;;;22.29;41.73;100619.56;2076276;28;769;-60
2022/05/25 03:43:30;;;;;;;;;;;;;;;22.29;41.95;100623.13;2075809;28;1890;-60
2022/05/25 03:44:30;;;;;;;;;;;;;;;22.29;41.96;100617.75;2075997;28;924;-60
2022/05/25 03:45:30;;;;;;;;;;;;;;;22.30;41.73;100624.00;2075876;28;761;-60
2022/05/25 03:46:32;;;;;;;;;;;;;;;22.29;42.27;100620.44;2075823;28;874;-60
2022/05/25 03:47:32;;;;;;;;;;;;;;;22.29;42.59;100619.56;2075826;28;851;-60
2022/05/25 03:48:32;;;;;;;;;;;;;;;22.29;41.94;100622.25;2075818;28;1036;-60
2022/05/25 03:49:33;;;;;;;;;;;;;;;22.29;42.60;100631.22;2075806;28;869;-60
2022/05/25 03:50:34;;;;;;;;;;;;;;;22.28;42.63;100633.97;2075802;28;887;-60
2022/05/25 03:51:34;;;;;;;;;;;;;;;22.28;42.14;100631.28;2075847;28;780;-60
2022/05/25 03:52:34;;;;;;;;;;;;;;;22.29;41.89;100638.44;2075823;28;1037;-60
2022/05/25 03:53:34;;;;;;;;;;;;;;;22.28;42.37;100642.06;2075197;28;681;-60
2022/05/25 03:54:37;;;;;;;;;;;;;;;22.28;41.91;100642.97;2075235;28;867;-60
2022/05/25 03:55:38;;;;;;;;;;;;;;;22.27;41.98;100635.81;2075765;28;1060;-60
2022/05/25 03:56:38;;;;;;;;;;;;;;;22.27;41.92;100638.53;2075756;28;1056;-59
2022/05/25 03:57:38;;;;;;;;;;;;;;;22.27;42.22;100640.31;2074406;28;1292;-60
2022/05/25 03:58:38;;;;;;;;;;;;;;;22.26;41.86;100639.47;2075109;28;874;-60
2022/05/25 03:59:38;;;;;;;;;;;;;;;22.26;42.41;100639.47;2075808;28;773;-59
2022/05/25 04:00:39;;;;;;;;;;;;;;;22.26;42.40;100636.75;2075740;28;1266;-60
2022/05/25 04:01:39;;;;;;;;;;;;;;;22.60;41.66;100631.72;2075782;28;785;-60
2022/05/25 04:02:39;;;;;;;;;;;;;;;23.72;39.10;100632.75;2075630;28;1969;-60
2022/05/25 04:03:39;;;;;;;;;;;;;;;24.48;37.97;100628.88;2075663;28;906;-59
2022/05/25 04:04:39;;;;;;;;;;;;;;;24.85;37.22;100624.22;2075731;28;1033;-59
2022/05/25 04:05:40;;;;;;;;;;;;;;;25.20;36.35;100623.22;2075701;28;836;-60
2022/05/25 04:06:40;;;;;;;;;;;;;;;25.66;35.64;100621.56;2076108;28;752;-60
2022/05/25 04:07:42;;;;;;;;;;;;;;;26.04;33.93;100627.44;2075697;28;879;-60
2022/05/25 04:08:42;;;;;;;;;;;;;;;26.37;34.00;100630.94;2075690;28;845;-60
2022/05/25 04:09:42;;;;;;;;;;;;;;;26.61;33.53;100630.38;2075681;28;1079;-60
2022/05/25 04:10:42;;;;;;;;;;;;;;;26.80;32.79;100632.78;2075605;28;890;-60
2022/05/25 04:11:42;;;;;;;;;;;;;;;27.05;31.95;100631.25;2075683;28;752;-60
2022/05/25 04:12:43;;;;;;;;;;;;;;;27.16;32.03;100627.84;2075659;28;764;-60
2022/05/25 04:13:43;;;;;;;;;;;;;;;27.27;32.12;100638.91;2075618;28;882;-60
2022/05/25 04:14:44;;;;;;;;;;;;;;;27.57;31.55;100624.28;2076343;28;847;-60
2022/05/25 04:15:44;;;;;;;;;;;;;;;27.72;31.09;100611.50;2075859;28;791;-60
2022/05/25 04:16:45;;;;;;;;;;;;;;;27.94;30.70;100619.06;2075461;28;1087;-60
2022/05/25 04:17:45;;;;;;;;;;;;;;;28.15;30.38;100631.34;2075581;28;911;-60
2022/05/25 04:18:45;;;;;;;;;;;;;;;28.23;30.12;100632.56;2074913;28;1266;-60
2022/05/25 04:19:45;;;;;;;;;;;;;;;28.37;29.64;100625.25;2075019;28;783;-60
2022/05/25 04:20:45;;;;;;;;;;;;;;;28.41;29.94;100629.50;2075537;28;1041;-60
2022/05/25 04:21:45;;;;;;;;;;;;;;;28.63;29.28;100630.72;2075742;28;765;-60
2022/05/25 04:22:46;;;;;;;;;;;;;;;28.64;29.19;100632.47;2075447;28;1914;-60
2022/05/25 04:23:46;;;;;;;;;;;;;;;28.92;28.88;100630.50;2075581;28;783;-60
2022/05/25 04:24:46;;;;;;;;;;;;;;;29.04;28.47;100626.88;2075554;28;883;-60
2022/05/25 04:25:46;;;;;;;;;;;;;;;29.01;29.11;100629.84;2075485;28;993;-60
2022/05/25 04:26:47;;;;;;;;;;;;;;;29.02;29.27;100625.28;2075542;28;807;-60
2022/05/25 04:27:48;;;;;;;;;;;;;;;29.33;28.17;100625.72;2075500;28;851;-60
2022/05/25 04:28:48;;;;;;;;;;;;;;;29.35;27.98;100629.22;2075520;28;827;-60
2022/05/25 04:29:49;;;;;;;;;;;;;;;29.39;28.80;100626.19;2075486;28;918;-60
2022/05/25 04:30:49;;;;;;;;;;;;;;;29.39;28.52;100628.91;2083383;28;1017;-60
2022/05/25 04:31:49;;;;;;;;;;;;;;;29.57;27.71;100634.84;2083501;28;798;-60
2022/05/25 04:32:49;;;;;;;;;;;;;;;29.70;27.63;100637.50;2075484;28;779;-60
2022/05/25 04:33:49;;;;;;;;;;;;;;;29.84;27.61;100647.38;2075604;28;780;-60
2022/05/25 04:34:50;;;;;;;;;;;;;;;29.95;27.61;100638.38;2075566;28;759;-60
2022/05/25 04:35:50;;;;;;;;;;;;;;;29.95;27.84;100640.22;2075445;28;878;-60
2022/05/25 04:36:50;;;;;;;;;;;;;;;29.97;27.80;100638.25;2075622;28;879;-60
2022/05/25 04:37:53;;;;;;;;;;;;;;;30.03;27.35;100641.41;2075322;28;1189;-60
2022/05/25 04:38:54;;;;;;;;;;;;;;;30.12;27.38;100637.09;2075444;28;853;-60
2022/05/25 04:39:54;;;;;;;;;;;;;;;30.26;27.34;100644.22;2075443;28;773;-60
2022/05/25 04:40:54;;;;;;;;;;;;;;;30.29;27.16;100645.84;2075413;28;882;-60
2022/05/25 04:41:54;;;;;;;;;;;;;;;30.34;26.67;100645.47;2075430;28;675;-60
2022/05/25 04:42:55;;;;;;;;;;;;;;;30.36;27.11;100641.63;2075613;28;1890;-60
2022/05/25 04:43:55;;;;;;;;;;;;;;;30.41;27.50;100644.00;2075693;28;981;-60
2022/05/25 04:45:03;;;;;;;;;;;;;;;30.59;26.81;100641.69;2075435;28;844;-60
2022/05/25 04:46:06;;;;;;;;;;;;;;;30.74;26.43;100642.31;2082874;28;885;-60
2022/05/25 04:47:07;;;;;;;;;;;;;;;30.83;26.52;100647.06;2082624;28;981;-60
2022/05/25 04:48:08;;;;;;;;;;;;;;;30.82;26.60;100645.31;2075379;28;811;-61
2022/05/25 04:49:08;;;;;;;;;;;;;;;30.98;26.22;100634.00;2075434;28;898;-60
2022/05/25 04:50:09;;;;;;;;;;;;;;;30.99;26.13;100641.22;2075272;28;599;-61
2022/05/25 04:51:12;;;;;;;;;;;;;;;31.12;26.30;100635.63;2075331;28;760;-60
2022/05/25 04:52:12;;;;;;;;;;;;;;;30.94;26.48;100637.97;2075341;28;836;-60
2022/05/25 04:53:13;;;;;;;;;;;;;;;31.12;26.06;100646.56;2075305;28;800;-60
2022/05/25 04:54:13;;;;;;;;;;;;;;;31.32;26.16;100646.81;2075299;28;1082;-60
2022/05/25 04:57:52;;;;;;;;;;;;;;;31.17;25.94;100651.69;2075312;28;642;-60
2022/05/25 04:58:52;;;;;;;;;;;;;;;31.26;26.08;100648.19;2076117;28;914;-60
2022/05/25 04:59:54;;;;;;;;;;;;;;;31.34;25.79;100644.81;2082754;28;867;-60
2022/05/25 05:00:54;;;;;;;;;;;;;;;31.34;25.81;100648.44;2083343;28;989;-60
2022/05/25 05:01:54;;;;;;;;;;;;;;;31.25;26.04;100634.63;2075324;28;997;-60
2022/05/25 05:02:55;;;;;;;;;;;;;;;31.37;25.96;100627.28;2075145;28;1889;-60
2022/05/25 05:03:55;;;;;;;;;;;;;;;31.59;25.35;100629.09;2075263;28;895;-60
2022/05/25 05:04:55;;;;;;;;;;;;;;;31.64;25.13;100629.56;2075202;28;978;-60
2022/05/25 05:05:56;;;;;;;;;;;;;;;31.64;25.25;100630.44;2075398;28;836;-60
2022/05/25 05:06:56;;;;;;;;;;;;;;;31.51;25.13;100635.19;2075257;28;1045;-60
2022/05/25 05:07:56;;;;;;;;;;;;;;;31.69;24.97;100627.31;2075172;28;871;-60
2022/05/25 05:08:57;;;;;;;;;;;;;;;31.73;25.19;100631.56;2074631;28;974;-60
2022/05/25 05:09:58;;;;;;;;;;;;;;;31.58;25.11;100628.19;2074823;28;1352;-60
2022/05/25 05:11:04;;;;;;;;;;;;;;;31.71;24.84;100625.31;2075065;28;1209;-60
2022/05/25 05:12:04;;;;;;;;;;;;;;;31.70;25.09;100626.31;2075073;28;1041;-60
2022/05/25 05:13:07;;;;;;;;;;;;;;;31.71;24.89;100635.38;2075518;28;883;-60
2022/05/25 05:14:07;;;;;;;;;;;;;;;31.76;25.22;100624.94;2075222;28;843;-60
2022/05/25 05:15:07;;;;;;;;;;;;;;;31.89;24.84;100625.66;2075135;28;776;-60
2022/05/25 05:16:10;;;;;;;;;;;;;;;31.93;24.73;100612.53;2075145;28;1323;-60
2022/05/25 05:17:10;;;;;;;;;;;;;;;31.87;24.56;100622.16;2082513;28;1061;-60
2022/05/25 05:18:10;;;;;;;;;;;;;;;31.94;25.02;100626.13;2082727;28;766;-60
2022/05/25 05:19:10;;;;;;;;;;;;;;;31.94;24.89;100625.25;2075183;28;835;-60
2022/05/25 05:20:11;;;;;;;;;;;;;;;31.68;25.05;100621.94;2075231;28;875;-61
2022/05/25 05:21:12;;;;;;;;;;;;;;;32.04;24.66;100631.66;2075148;28;804;-61
2022/05/25 05:22:12;;;;;;;;;;;;;;;31.86;24.92;100628.66;2075122;28;996;-60
2022/05/25 05:23:12;;;;;;;;;;;;;;;32.06;24.92;100623.34;2075143;28;1907;-60
2022/05/25 05:24:12;;;;;;;;;;;;;;;32.11;24.40;100631.13;2075120;28;863;-60
2022/05/25 05:25:12;;;;;;;;;;;;;;;32.06;24.63;100632.41;2075159;28;1029;-61
2022/05/25 05:26:13;;;;;;;;;;;;;;;32.00;24.67;100632.94;2075232;28;672;-60
2022/05/25 05:27:13;;;;;;;;;;;;;;;31.99;24.88;100636.66;2082625;28;1247;-60
2022/05/25 05:28:16;;;;;;;;;;;;;;;32.05;24.82;100644.38;2082644;28;986;-60
2022/05/25 05:29:16;;;;;;;;;;;;;;;32.15;24.35;100638.94;2075053;28;891;-60
2022/05/25 05:30:18;;;;;;;;;;;;;;;32.03;24.44;100635.41;2075078;28;772;-60
2022/05/25 05:31:18;;;;;;;;;;;;;;;32.08;24.14;100627.66;2075052;28;1040;-60
2022/05/25 05:32:18;;;;;;;;;;;;;;;32.20;24.31;100642.16;2074359;28;962;-60
2022/05/25 05:33:18;;;;;;;;;;;;;;;32.06;24.21;100637.03;2074451;28;1044;-60